Terminal Aerodrome Forecast
Issued by NWS

Home | Current Version | Previous Version | Text Only | Print | Product List | Glossary On
Versions: 1 2 3 4 5 6 7 8 9 10 11 12 13 14 15 16 17 18 19
207
FTAK31 PAJN 190524
TAFAGY
TAF
PAGY 190524Z 1906/2006 04020G31KT 4SM -SN SCT025 OVC050
     FM191200 04012G20KT 2SM -SHSN SCT007 OVC015
     FM191600 21015G25KT P6SM VCSH SCT030 OVC050
     FM200000 21012KT P6SM VCSH SCT030 OVC050
      AMD LTD TO CLD VIS AND WIND=

USA.gov is the U.S. government's official web portal to all federal, state and local government web resources and services.